Time;durP1;ratioP1;P1;durP2;ratioP2;P2;SDS_P1;SDS_P2;PMS_P1;PMS_P2;Temp;Humidity;BMP_temperature;BMP_pressure;BME280_temperature;BME280_humidity;BME280_pressure;Samples;Min_cycle;Max_cycle;Signal;HPM_P1;HPM_P2
2022/07/31 00:00:32;;;;;;;5.28;1.83;;;23.50;74.20;;;;;;6248779;23;20097;-70
2022/07/31 00:02:57;;;;;;;3.95;1.88;;;23.50;73.90;;;;;;6248915;22;19996;-70
2022/07/31 00:05:24;;;;;;;2.08;1.60;;;23.50;74.40;;;;;;6248593;23;20004;-69
2022/07/31 00:07:52;;;;;;;5.90;1.90;;;23.50;73.60;;;;;;6248524;22;20445;-70
2022/07/31 00:10:17;;;;;;;3.10;2.00;;;23.50;73.40;;;;;;6246252;22;20000;-66
2022/07/31 00:12:43;;;;;;;3.28;2.33;;;23.50;73.40;;;;;;6247261;22;20004;-66
2022/07/31 00:15:10;;;;;;;3.50;1.95;;;23.50;74.10;;;;;;6247516;22;20102;-66
2022/07/31 00:17:38;;;;;;;6.22;1.80;;;23.40;74.80;;;;;;6247016;22;20000;-69
2022/07/31 00:20:05;;;;;;;4.82;2.30;;;23.40;73.70;;;;;;6247114;22;20050;-70
2022/07/31 00:22:31;;;;;;;2.67;1.98;;;23.40;73.50;;;;;;6247374;22;20015;-69
2022/07/31 00:24:57;;;;;;;3.95;1.50;;;23.40;73.40;;;;;;6246872;22;20366;-70
2022/07/31 00:27:23;;;;;;;3.92;2.30;;;23.40;73.30;;;;;;6246844;22;20016;-70
2022/07/31 00:29:49;;;;;;;3.47;2.00;;;23.40;73.30;;;;;;6247050;22;20007;-66
2022/07/31 00:32:15;;;;;;;6.38;2.05;;;23.30;73.40;;;;;;6247041;22;20004;-66
2022/07/31 00:34:41;;;;;;;6.30;1.98;;;23.30;73.70;;;;;;6247052;22;20011;-66
2022/07/31 00:37:08;;;;;;;4.93;1.90;;;23.20;73.90;;;;;;6247332;22;20014;-66
2022/07/31 00:39:33;;;;;;;3.67;2.03;;;23.20;73.90;;;;;;6247006;22;20331;-70
2022/07/31 00:41:59;;;;;;;4.60;1.90;;;23.10;74.00;;;;;;6247239;23;20001;-66
2022/07/31 00:44:25;;;;;;;10.40;2.20;;;23.20;74.30;;;;;;6247028;23;20003;-66
2022/07/31 00:46:50;;;;;;;4.07;1.90;;;23.20;74.30;;;;;;6247092;23;20000;-69
2022/07/31 00:49:16;;;;;;;3.70;2.10;;;23.10;74.40;;;;;;6246496;22;20008;-66
2022/07/31 00:51:42;;;;;;;2.17;1.70;;;23.10;74.60;;;;;;6246587;23;20008;-66
2022/07/31 00:54:09;;;;;;;3.63;2.08;;;23.10;74.50;;;;;;6246728;23;20411;-66
2022/07/31 00:56:35;;;;;;;3.30;2.00;;;23.00;74.10;;;;;;6247269;22;20008;-69
2022/07/31 00:59:01;;;;;;;5.07;2.03;;;23.00;74.40;;;;;;6243587;22;20331;-66
2022/07/31 01:01:27;;;;;;;7.72;2.30;;;22.90;74.30;;;;;;6243458;22;20008;-66
2022/07/31 01:03:53;;;;;;;4.28;2.10;;;22.90;74.20;;;;;;6243811;22;20011;-67
2022/07/31 01:06:20;;;;;;;3.55;1.88;;;22.90;74.60;;;;;;6246673;22;20027;-67
2022/07/31 01:08:46;;;;;;;5.88;2.08;;;22.90;74.40;;;;;;6246585;23;20520;-65
2022/07/31 01:11:14;;;;;;;4.82;2.30;;;22.80;74.60;;;;;;6246424;23;20000;-69
2022/07/31 01:13:52;;;;;;;4.50;2.40;;;22.80;74.70;;;;;;6246277;22;20001;-69
2022/07/31 01:16:20;;;;;;;4.78;1.98;;;22.80;75.20;;;;;;6246484;22;20004;-70
2022/07/31 01:18:48;;;;;;;5.18;2.35;;;22.70;74.90;;;;;;6246322;22;19996;-71
2022/07/31 01:21:20;;;;;;;4.88;2.03;;;22.70;74.70;;;;;;6246211;22;20093;-69
2022/07/31 01:24:11;;;;;;;2.45;2.00;;;22.70;74.80;;;;;;6246510;22;20092;-70
2022/07/31 01:26:55;;;;;;;7.82;2.08;;;22.70;75.20;;;;;;6245839;23;20081;-68
2022/07/31 01:29:27;;;;;;;5.07;2.10;;;22.70;75.20;;;;;;6245683;23;19996;-70
2022/07/31 01:32:05;;;;;;;;;;;22.60;75.10;;;;;;6247213;22;20004;-67
2022/07/31 01:34:36;;;;;;;5.15;2.40;;;22.60;75.20;;;;;;6246477;22;20344;-66
2022/07/31 01:37:22;;;;;;;8.52;2.13;;;22.60;75.40;;;;;;6246309;23;20004;-70
2022/07/31 01:39:58;;;;;;;4.43;2.10;;;22.50;75.60;;;;;;6246478;22;20079;-69
2022/07/31 01:42:26;;;;;;;5.65;3.20;;;22.50;76.00;;;;;;6246890;22;20062;-69
2022/07/31 01:44:56;;;;;;;4.78;2.15;;;22.50;76.00;;;;;;6246480;22;20007;-70
2022/07/31 01:47:23;;;;;;;2.63;2.13;;;22.50;76.20;;;;;;6246399;22;20000;-70
2022/07/31 01:49:50;;;;;;;3.83;2.13;;;22.40;76.10;;;;;;6246006;22;20008;-70
2022/07/31 01:52:18;;;;;;;3.10;2.13;;;22.40;76.70;;;;;;6246017;22;20004;-66
2022/07/31 01:54:45;;;;;;;7.32;2.42;;;22.40;76.20;;;;;;6246217;22;20004;-67
2022/07/31 01:57:11;;;;;;;3.90;2.13;;;22.40;76.50;;;;;;6246154;22;20009;-66
2022/07/31 01:59:39;;;;;;;3.30;2.17;;;22.50;76.60;;;;;;6245577;22;20050;-66
2022/07/31 02:02:05;;;;;;;4.70;2.40;;;22.40;76.40;;;;;;6246230;22;20008;-66
2022/07/31 02:04:32;;;;;;;4.90;2.20;;;22.40;75.90;;;;;;6246322;23;20158;-70
2022/07/31 02:07:02;;;;;;;9.00;2.45;;;22.40;75.50;;;;;;6246607;22;20004;-70
2022/07/31 02:09:30;;;;;;;4.15;2.20;;;22.40;76.00;;;;;;6246609;22;20045;-69
2022/07/31 02:11:56;;;;;;;8.35;2.10;;;22.30;76.80;;;;;;6246243;22;19997;-71
2022/07/31 02:14:24;;;;;;;2.55;1.90;;;22.30;76.40;;;;;;6246039;22;20083;-66
2022/07/31 02:16:50;;;;;;;3.28;2.10;;;22.30;76.40;;;;;;6246111;22;20032;-66
2022/07/31 02:19:16;;;;;;;3.08;1.75;;;22.30;76.30;;;;;;6246264;22;20335;-69
2022/07/31 02:21:42;;;;;;;5.00;1.92;;;22.30;76.00;;;;;;6246219;22;20331;-66
2022/07/31 02:24:08;;;;;;;2.10;1.80;;;22.30;75.80;;;;;;6245889;23;20002;-66
2022/07/31 02:26:36;;;;;;;3.70;1.67;;;22.30;75.70;;;;;;6245705;22;20087;-70
2022/07/31 02:29:03;;;;;;;3.63;1.50;;;22.30;75.00;;;;;;6246101;22;20012;-70
2022/07/31 02:31:31;;;;;;;3.75;1.88;;;22.40;74.50;;;;;;6245728;22;20000;-70
2022/07/31 02:33:57;;;;;;;5.32;1.70;;;22.30;74.00;;;;;;6245899;22;20100;-66
2022/07/31 02:36:24;;;;;;;2.75;1.58;;;22.40;74.00;;;;;;6245758;22;20419;-68
2022/07/31 02:38:53;;;;;;;7.38;1.63;;;22.40;73.90;;;;;;6246222;22;20004;-70
2022/07/31 02:41:20;;;;;;;2.20;1.98;;;22.40;74.10;;;;;;6245242;22;20504;-70
2022/07/31 02:43:48;;;;;;;4.25;1.63;;;22.40;74.20;;;;;;6245477;22;19996;-67
2022/07/31 02:46:14;;;;;;;4.22;1.55;;;22.40;74.70;;;;;;6245940;22;20070;-66
2022/07/31 02:48:40;;;;;;;2.70;1.70;;;22.40;74.80;;;;;;6245855;22;20027;-70
2022/07/31 02:51:07;;;;;;;2.45;1.60;;;22.40;75.00;;;;;;6246011;22;20016;-67
2022/07/31 02:53:33;;;;;;;2.22;1.63;;;22.40;75.00;;;;;;6245712;22;20003;-66
2022/07/31 02:56:03;;;;;;;6.43;1.70;;;22.40;74.80;;;;;;6246082;22;20019;-69
2022/07/31 02:58:28;;;;;;;3.22;1.90;;;22.40;74.80;;;;;;6245658;22;20031;-67
2022/07/31 03:01:02;;;;;;;3.72;1.40;;;22.30;74.70;;;;;;6245616;23;20066;-70
2022/07/31 03:03:27;;;;;;;4.45;1.38;;;22.40;74.30;;;;;;6246189;22;20446;-65
2022/07/31 03:05:53;;;;;;;3.50;1.60;;;22.30;72.20;;;;;;6245797;23;20004;-66
2022/07/31 03:08:19;;;;;;;6.68;1.80;;;22.30;71.20;;;;;;6245711;22;20377;-66
2022/07/31 03:10:46;;;;;;;2.95;1.60;;;22.30;71.20;;;;;;6246136;22;20012;-69
2022/07/31 03:13:12;;;;;;;4.65;1.45;;;22.30;72.00;;;;;;6245872;22;20066;-68
2022/07/31 03:15:39;;;;;;;2.90;1.33;;;22.30;72.60;;;;;;6245773;22;20385;-68
2022/07/31 03:18:10;;;;;;;6.43;1.70;;;22.30;72.50;;;;;;6246042;22;20015;-69
2022/07/31 03:20:36;;;;;;;4.10;1.67;;;22.30;72.00;;;;;;6245610;22;20016;-66
2022/07/31 03:23:03;;;;;;;4.38;1.65;;;22.20;71.60;;;;;;6245751;22;20000;-65
2022/07/31 03:25:30;;;;;;;1.88;1.48;;;22.30;71.70;;;;;;6245885;22;20326;-68
2022/07/31 03:27:55;;;;;;;7.55;1.70;;;22.30;72.30;;;;;;6245427;22;20012;-69
2022/07/31 03:30:24;;;;;;;4.55;1.85;;;22.20;72.00;;;;;;6245503;23;20007;-68
2022/07/31 03:32:56;;;;;;;4.03;1.55;;;22.20;72.10;;;;;;6246078;23;20004;-68
2022/07/31 03:35:25;;;;;;;3.17;1.73;;;22.20;72.70;;;;;;6245561;23;20449;-67
2022/07/31 03:37:51;;;;;;;5.05;1.65;;;22.20;72.20;;;;;;6245482;22;20004;-70
2022/07/31 03:40:17;;;;;;;5.53;1.83;;;22.20;72.10;;;;;;6245681;22;20020;-71
2022/07/31 03:42:44;;;;;;;5.57;1.98;;;22.20;72.60;;;;;;6245958;22;20054;-71
2022/07/31 03:45:11;;;;;;;3.95;1.90;;;22.20;72.20;;;;;;6247596;22;20466;-68
2022/07/31 03:47:37;;;;;;;6.88;1.70;;;22.20;72.10;;;;;;6247710;22;20001;-67
2022/07/31 03:50:11;;;;;;;3.47;1.80;;;22.10;72.00;;;;;;6247793;22;20011;-68
2022/07/31 03:52:38;;;;;;;6.22;1.90;;;22.10;72.10;;;;;;6247272;22;20000;-67
2022/07/31 03:55:06;;;;;;;4.88;2.80;;;22.10;72.20;;;;;;6247745;22;20013;-68
2022/07/31 03:57:32;;;;;;;5.93;2.13;;;22.10;72.50;;;;;;6247335;22;19997;-71
2022/07/31 04:00:01;;;;;;;4.22;2.05;;;22.00;73.00;;;;;;6247427;22;20020;-71
2022/07/31 04:02:28;;;;;;;3.42;1.80;;;21.90;73.10;;;;;;6247202;22;20071;-70
2022/07/31 04:04:54;;;;;;;5.47;2.20;;;21.90;73.20;;;;;;6247557;22;20000;-71
2022/07/31 04:07:19;;;;;;;3.15;1.70;;;22.00;73.10;;;;;;6247404;22;20075;-71
2022/07/31 04:09:46;;;;;;;7.05;2.05;;;21.90;73.10;;;;;;6247003;23;20032;-67
2022/07/31 04:12:11;;;;;;;5.43;2.28;;;21.90;73.30;;;;;;6247381;22;20011;-65
2022/07/31 04:14:37;;;;;;;7.07;2.25;;;21.80;73.90;;;;;;6247345;22;20008;-67
2022/07/31 04:17:03;;;;;;;5.97;1.73;;;21.70;74.40;;;;;;6247459;23;20008;-67
2022/07/31 04:19:31;;;;;;;5.20;2.10;;;21.60;74.30;;;;;;6247292;22;20008;-71
2022/07/31 04:21:58;;;;;;;7.13;2.53;;;21.60;74.80;;;;;;6246808;23;20452;-71
2022/07/31 04:24:24;;;;;;;4.88;1.85;;;21.60;75.20;;;;;;6247090;22;20027;-67
2022/07/31 04:26:50;;;;;;;2.95;2.00;;;21.50;75.30;;;;;;6247128;22;20016;-71
2022/07/31 04:29:17;;;;;;;3.85;2.65;;;21.60;75.30;;;;;;6247113;22;20127;-67
2022/07/31 04:31:42;;;;;;;5.93;1.98;;;21.50;75.70;;;;;;6246836;22;20000;-69
2022/07/31 04:34:08;;;;;;;7.20;1.98;;;21.50;75.90;;;;;;6246974;23;20007;-68
2022/07/31 04:36:34;;;;;;;3.13;1.77;;;21.50;75.50;;;;;;6246958;23;20024;-69
2022/07/31 04:39:00;;;;;;;4.35;1.90;;;21.60;75.90;;;;;;6246708;23;20003;-67
2022/07/31 04:41:27;;;;;;;4.95;1.90;;;21.60;75.70;;;;;;6246661;22;20008;-69
2022/07/31 04:43:52;;;;;;;3.55;1.60;;;21.60;75.30;;;;;;6246765;22;20000;-68
2022/07/31 04:46:19;;;;;;;3.15;1.70;;;21.60;75.40;;;;;;6246583;22;20039;-69
2022/07/31 04:48:44;;;;;;;1.98;1.73;;;21.60;75.50;;;;;;6247146;22;20075;-70
2022/07/31 04:51:21;;;;;;;3.47;2.10;;;21.70;75.60;;;;;;6246912;23;20036;-70
2022/07/31 04:53:48;;;;;;;4.95;1.90;;;21.70;75.40;;;;;;6246799;22;20324;-69
2022/07/31 04:59:02;;;;;;;1.83;1.40;;;21.80;75.10;;;;;;6246488;23;20015;-71
2022/07/31 05:01:29;;;;;;;1.83;1.58;;;21.80;74.70;;;;;;6246193;22;20066;-71
2022/07/31 05:03:55;;;;;;;1.50;1.27;;;21.90;74.20;;;;;;6246760;22;20003;-68
2022/07/31 05:06:21;;;;;;;1.95;1.48;;;21.90;73.70;;;;;;6246805;23;20080;-69
2022/07/31 05:08:46;;;;;;;3.45;1.30;;;21.90;73.10;;;;;;6247094;22;20004;-69
2022/07/31 05:11:21;;;;;;;2.00;1.48;;;22.00;72.80;;;;;;6246439;23;20323;-71
2022/07/31 05:13:50;;;;;;;1.80;1.42;;;22.10;72.20;;;;;;6246451;23;20001;-69
2022/07/31 05:16:16;;;;;;;2.22;1.30;;;22.20;71.60;;;;;;6246740;22;20008;-69
2022/07/31 05:18:44;;;;;;;3.53;1.42;;;22.20;71.40;;;;;;6246286;22;20075;-69
2022/07/31 05:21:10;;;;;;;1.92;1.10;;;22.20;71.30;;;;;;6246612;22;20008;-69
2022/07/31 05:23:36;;;;;;;3.53;1.25;;;22.20;71.10;;;;;;6246847;22;20366;-69
2022/07/31 05:26:02;;;;;;;4.05;1.45;;;22.30;71.10;;;;;;6246443;22;20008;-71
2022/07/31 05:28:28;;;;;;;4.43;1.30;;;22.40;71.00;;;;;;6246327;22;20525;-68
2022/07/31 05:30:54;;;;;;;2.35;1.27;;;22.40;71.00;;;;;;6246384;23;20011;-69
2022/07/31 05:33:19;;;;;;;3.65;1.23;;;22.50;71.10;;;;;;6246312;22;20007;-69
2022/07/31 05:35:45;;;;;;;4.35;1.80;;;22.50;70.60;;;;;;6246299;23;20007;-69
2022/07/31 05:38:10;;;;;;;3.25;1.60;;;22.60;70.40;;;;;;6245955;23;20008;-68
2022/07/31 05:40:36;;;;;;;1.85;1.52;;;22.60;70.60;;;;;;6246510;23;20044;-70
2022/07/31 05:43:02;;;;;;;1.52;1.42;;;22.70;70.40;;;;;;6246217;23;20070;-67
2022/07/31 05:45:28;;;;;;;6.40;1.20;;;22.60;69.70;;;;;;6245670;22;20004;-67
2022/07/31 05:47:54;;;;;;;2.95;1.35;;;22.70;69.30;;;;;;6245541;23;20449;-67
2022/07/31 05:50:20;;;;;;;2.40;1.40;;;22.70;68.60;;;;;;6245858;23;20000;-67
2022/07/31 05:52:48;;;;;;;2.20;1.25;;;22.80;68.00;;;;;;6245824;22;20036;-66
2022/07/31 05:55:14;;;;;;;3.13;1.33;;;22.80;67.90;;;;;;6245779;22;20438;-67
2022/07/31 05:57:40;;;;;;;2.08;1.45;;;22.90;67.70;;;;;;6245738;22;20000;-67
2022/07/31 06:00:06;;;;;;;4.35;1.30;;;22.90;67.40;;;;;;6245548;22;20443;-67
2022/07/31 06:02:32;;;;;;;3.67;1.33;;;22.90;67.30;;;;;;6245799;22;20096;-67
2022/07/31 06:04:57;;;;;;;2.15;1.20;;;23.00;67.00;;;;;;6245587;23;20031;-73
2022/07/31 06:07:23;;;;;;;4.00;1.23;;;23.00;66.90;;;;;;6245517;23;20004;-74
2022/07/31 06:09:49;;;;;;;2.70;1.45;;;23.10;66.90;;;;;;6245194;23;20140;-74
2022/07/31 06:12:14;;;;;;;5.18;1.27;;;23.00;67.00;;;;;;6244424;23;20419;-69
2022/07/31 06:14:40;;;;;;;2.95;1.38;;;23.10;67.10;;;;;;6245256;23;20423;-69
2022/07/31 06:17:06;;;;;;;1.85;1.48;;;23.10;67.20;;;;;;6245659;23;20434;-68
2022/07/31 06:19:32;;;;;;;2.75;1.30;;;23.20;67.10;;;;;;6246022;22;20012;-68
2022/07/31 06:21:58;;;;;;;3.38;1.30;;;23.20;67.20;;;;;;6245999;22;20006;-68
2022/07/31 06:24:24;;;;;;;5.97;1.17;;;23.20;67.40;;;;;;6245603;22;20075;-69
2022/07/31 06:26:51;;;;;;;1.67;1.10;;;23.40;66.70;;;;;;6245848;22;20059;-68
2022/07/31 06:29:17;;;;;;;5.10;1.42;;;23.40;66.10;;;;;;6246026;22;20012;-69
2022/07/31 06:31:42;;;;;;;5.13;1.38;;;23.50;65.90;;;;;;6246330;22;20382;-69
2022/07/31 06:34:08;;;;;;;1.52;1.20;;;23.50;65.80;;;;;;6245807;23;20000;-69
2022/07/31 06:36:34;;;;;;;2.35;1.10;;;23.50;65.60;;;;;;6246328;23;20343;-71
2022/07/31 06:38:59;;;;;;;2.00;1.20;;;23.60;65.50;;;;;;6246288;23;20000;-75
2022/07/31 06:41:43;;;;;;;5.32;1.17;;;23.70;64.90;;;;;;6246255;23;20078;-69
2022/07/31 06:44:15;;;;;;;2.10;1.30;;;23.70;64.30;;;;;;6245751;22;20001;-76
2022/07/31 06:46:41;;;;;;;2.83;1.00;;;23.80;62.70;;;;;;6246209;22;20285;-69
2022/07/31 06:49:07;;;;;;;2.92;1.15;;;23.80;62.30;;;;;;6246397;22;20058;-68
2022/07/31 06:51:33;;;;;;;2.25;1.20;;;23.90;62.70;;;;;;6245967;22;19997;-74
2022/07/31 06:54:01;;;;;;;2.10;1.15;;;23.90;62.10;;;;;;6245827;23;20458;-69
2022/07/31 06:56:30;;;;;;;1.20;1.10;;;24.00;62.20;;;;;;6246081;22;20008;-71
2022/07/31 06:58:56;;;;;;;2.65;1.10;;;24.10;62.20;;;;;;6246072;22;20000;-69
2022/07/31 07:01:22;;;;;;;6.15;1.20;;;24.20;62.00;;;;;;6245725;22;20020;-68
2022/07/31 07:03:48;;;;;;;4.68;1.15;;;24.20;61.80;;;;;;6245764;23;20452;-71
2022/07/31 07:06:14;;;;;;;3.42;1.13;;;24.20;61.70;;;;;;6245986;22;20070;-69
2022/07/31 07:08:39;;;;;;;1.63;1.00;;;24.30;60.60;;;;;;6245961;23;19996;-69
2022/07/31 07:11:05;;;;;;;1.80;1.05;;;24.30;60.40;;;;;;6245797;23;20012;-68
2022/07/31 07:13:31;;;;;;;5.65;1.45;;;24.50;59.80;;;;;;6245634;23;20011;-68
2022/07/31 07:15:56;;;;;;;0.93;0.93;;;24.50;58.60;;;;;;6245829;23;19997;-69
2022/07/31 07:18:22;;;;;;;4.85;1.00;;;24.50;58.50;;;;;;6246553;23;20004;-68
2022/07/31 07:20:49;;;;;;;6.28;1.20;;;24.60;58.20;;;;;;6247773;23;20012;-75
2022/07/31 07:23:14;;;;;;;1.42;1.00;;;24.70;57.60;;;;;;6247593;22;20004;-75
2022/07/31 07:25:40;;;;;;;1.98;1.20;;;24.70;58.40;;;;;;6247815;23;20004;-69
2022/07/31 07:28:07;;;;;;;2.72;1.25;;;24.80;58.70;;;;;;6247563;22;20473;-69
2022/07/31 07:30:33;;;;;;;4.93;1.10;;;24.90;58.70;;;;;;6247784;23;20015;-75
2022/07/31 07:32:59;;;;;;;1.10;1.00;;;24.90;58.50;;;;;;6247647;22;20341;-69
2022/07/31 07:35:25;;;;;;;2.65;1.02;;;24.90;58.50;;;;;;6248078;22;20036;-69
2022/07/31 07:37:52;;;;;;;2.05;0.80;;;25.00;58.40;;;;;;6247541;23;20000;-69
2022/07/31 07:40:18;;;;;;;3.78;1.08;;;25.00;58.50;;;;;;6247744;22;20083;-69
2022/07/31 07:42:44;;;;;;;1.52;1.10;;;25.10;58.50;;;;;;6247541;22;20042;-69
2022/07/31 07:45:11;;;;;;;2.35;1.17;;;25.20;58.60;;;;;;6247453;22;20007;-69
2022/07/31 07:47:37;;;;;;;1.58;1.10;;;25.30;58.60;;;;;;6247649;22;20489;-74
2022/07/31 07:50:07;;;;;;;1.45;0.85;;;25.30;58.50;;;;;;6247557;22;20000;-75
2022/07/31 07:52:34;;;;;;;1.13;0.80;;;25.50;58.30;;;;;;6247454;22;20106;-71
2022/07/31 07:54:59;;;;;;;2.65;0.98;;;25.50;58.10;;;;;;6247694;22;20335;-70
2022/07/31 07:57:25;;;;;;;3.50;1.10;;;25.60;57.20;;;;;;6247340;23;20001;-69
2022/07/31 07:59:51;;;;;;;6.07;1.20;;;25.60;56.20;;;;;;6246334;23;20320;-74
2022/07/31 08:02:17;;;;;;;1.67;0.98;;;25.70;56.20;;;;;;6247671;22;20010;-70
2022/07/31 08:04:43;;;;;;;1.50;1.02;;;25.70;56.40;;;;;;6247574;22;20035;-70
2022/07/31 08:07:09;;;;;;;4.65;1.00;;;25.80;56.60;;;;;;6247327;23;20319;-75
2022/07/31 08:09:35;;;;;;;5.68;1.10;;;25.80;56.40;;;;;;6247380;23;20486;-76
2022/07/31 08:12:03;;;;;;;2.47;0.90;;;25.90;56.40;;;;;;6247366;22;20075;-75
2022/07/31 08:14:29;;;;;;;3.65;0.90;;;26.00;56.30;;;;;;6247272;22;20024;-69
2022/07/31 08:17:04;;;;;;;8.00;1.90;;;26.10;56.10;;;;;;6247596;22;20016;-71
2022/07/31 08:19:29;;;;;;;2.40;1.00;;;26.20;56.00;;;;;;6247174;22;20007;-69
2022/07/31 08:21:55;;;;;;;1.98;0.80;;;26.20;55.80;;;;;;6247143;23;20008;-69
2022/07/31 08:24:21;;;;;;;3.17;0.88;;;26.30;55.80;;;;;;6247483;22;20008;-69
2022/07/31 08:29:31;;;;;;;1.75;1.02;;;26.50;54.60;;;;;;6246919;23;20066;-73
2022/07/31 08:31:56;;;;;;;0.85;0.60;;;26.60;53.60;;;;;;6247262;23;20032;-74
2022/07/31 08:34:22;;;;;;;1.70;0.77;;;26.60;52.60;;;;;;6247176;23;20046;-69
2022/07/31 08:36:48;;;;;;;0.90;0.70;;;26.60;53.10;;;;;;6246870;22;20007;-69
2022/07/31 08:39:13;;;;;;;2.85;0.90;;;26.70;52.70;;;;;;6247153;23;20004;-76
2022/07/31 08:41:39;;;;;;;1.30;0.75;;;26.80;52.20;;;;;;6247169;22;20019;-75
2022/07/31 08:44:06;;;;;;;4.20;1.13;;;26.80;52.20;;;;;;6246863;23;20004;-72
2022/07/31 08:46:36;;;;;;;3.50;0.98;;;26.90;52.40;;;;;;6246968;22;20123;-69
2022/07/31 08:49:03;;;;;;;3.70;0.88;;;27.00;52.30;;;;;;6246973;22;20000;-69
2022/07/31 08:51:34;;;;;;;1.55;0.73;;;27.10;52.40;;;;;;6246901;22;20099;-73
2022/07/31 08:54:01;;;;;;;1.88;1.00;;;27.10;51.80;;;;;;6247020;22;20000;-69
2022/07/31 08:56:27;;;;;;;1.42;0.80;;;27.20;51.30;;;;;;6247013;22;20001;-69
2022/07/31 08:58:55;;;;;;;1.80;0.90;;;27.30;50.90;;;;;;6247113;22;20445;-69
2022/07/31 09:01:21;;;;;;;0.70;0.70;;;27.40;50.60;;;;;;6246784;22;20048;-69
2022/07/31 09:03:47;;;;;;;4.85;0.90;;;27.50;50.50;;;;;;6246955;22;20319;-69
2022/07/31 09:06:13;;;;;;;1.25;0.90;;;27.50;50.70;;;;;;6246857;23;20004;-69
2022/07/31 09:08:39;;;;;;;1.17;1.00;;;27.60;51.00;;;;;;6246885;23;20000;-75
2022/07/31 09:11:09;;;;;;;4.30;0.60;;;27.70;50.80;;;;;;6246613;22;20343;-69
2022/07/31 09:13:35;;;;;;;2.42;1.00;;;27.80;49.20;;;;;;6246865;22;20000;-69
2022/07/31 09:16:02;;;;;;;2.35;0.77;;;27.80;49.50;;;;;;6246718;22;20079;-73
2022/07/31 09:18:28;;;;;;;1.10;0.70;;;27.90;49.60;;;;;;6247059;22;20004;-69
2022/07/31 09:20:56;;;;;;;3.00;0.90;;;28.00;49.30;;;;;;6246621;22;20330;-69
2022/07/31 09:23:22;;;;;;;4.28;0.90;;;28.00;49.30;;;;;;6247054;22;20009;-69
2022/07/31 09:25:55;;;;;;;1.33;0.88;;;28.10;49.80;;;;;;6246547;22;20000;-69
2022/07/31 09:28:33;;;;;;;0.93;0.80;;;28.20;49.40;;;;;;6246068;23;20046;-74
2022/07/31 09:31:00;;;;;;;3.08;0.80;;;28.30;49.50;;;;;;6246635;22;20319;-75
2022/07/31 09:33:27;;;;;;;1.52;0.70;;;28.30;49.30;;;;;;6246495;22;20064;-69
2022/07/31 09:35:53;;;;;;;2.33;0.82;;;28.40;49.10;;;;;;6246620;22;20046;-69
2022/07/31 09:38:19;;;;;;;4.68;1.00;;;28.50;48.90;;;;;;6246753;22;20111;-69
2022/07/31 09:40:46;;;;;;;3.25;0.82;;;28.60;47.80;;;;;;6246432;22;20012;-69
2022/07/31 09:43:28;;;;;;;6.45;1.00;;;28.60;48.10;;;;;;6246448;23;20000;-69
2022/07/31 09:46:00;;;;;;;2.75;0.80;;;28.70;47.70;;;;;;6246341;22;20359;-69
2022/07/31 09:48:26;;;;;;;1.35;0.80;;;28.70;48.20;;;;;;6246383;22;20363;-69
2022/07/31 09:51:03;;;;;;;2.17;0.93;;;28.80;47.10;;;;;;6246111;22;20087;-71
2022/07/31 09:53:58;;;;;;;4.03;0.90;;;28.90;46.80;;;;;;6245936;22;20667;-73
2022/07/31 09:56:31;;;;;;;1.17;0.80;;;29.00;46.10;;;;;;6238822;23;20031;-74
2022/07/31 09:58:57;;;;;;;1.67;0.90;;;29.00;46.50;;;;;;6245736;22;20374;-69
2022/07/31 10:01:24;;;;;;;2.83;0.73;;;29.10;47.20;;;;;;6245714;22;20039;-75
2022/07/31 10:03:52;;;;;;;3.00;1.13;;;29.20;47.10;;;;;;6245659;22;20023;-69
2022/07/31 10:06:19;;;;;;;1.55;1.10;;;29.30;46.50;;;;;;6246337;22;20008;-69
2022/07/31 10:08:46;;;;;;;3.33;0.75;;;29.40;45.30;;;;;;6245799;22;20011;-69
2022/07/31 10:11:17;;;;;;;1.60;0.93;;;29.40;44.70;;;;;;6246863;22;20011;-69
2022/07/31 10:13:46;;;;;;;0.80;0.80;;;29.40;45.00;;;;;;6245869;22;20434;-68
2022/07/31 10:16:13;;;;;;;3.15;0.80;;;29.30;45.20;;;;;;6245858;22;20501;-68
2022/07/31 10:18:44;;;;;;;1.60;1.20;;;29.20;44.30;;;;;;6245660;22;20047;-69
2022/07/31 10:21:10;;;;;;;3.13;1.00;;;29.20;44.60;;;;;;6245964;22;20012;-71
2022/07/31 10:23:40;;;;;;;0.90;0.80;;;29.30;45.60;;;;;;6245545;22;20480;-73
2022/07/31 10:26:06;;;;;;;3.20;0.90;;;29.40;44.60;;;;;;6246217;22;20405;-70
2022/07/31 10:28:36;;;;;;;1.27;0.75;;;29.50;44.50;;;;;;6245555;22;20149;-73
2022/07/31 10:31:03;;;;;;;3.22;0.90;;;29.60;44.30;;;;;;6246180;22;20004;-69
2022/07/31 10:33:29;;;;;;;1.10;0.90;;;29.70;44.60;;;;;;6245643;22;20331;-69
2022/07/31 10:36:15;;;;;;;4.65;1.13;;;29.80;44.50;;;;;;6245824;22;20004;-70
2022/07/31 10:38:49;;;;;;;1.80;1.00;;;29.90;43.90;;;;;;6245178;23;20004;-73
2022/07/31 10:41:30;;;;;;;5.28;1.10;;;30.00;42.50;;;;;;6245666;22;20016;-72
2022/07/31 10:44:02;;;;;;;2.65;0.90;;;30.00;42.10;;;;;;6244754;22;20004;-71
2022/07/31 10:46:30;;;;;;;3.30;1.05;;;30.10;44.80;;;;;;6242256;22;20327;-68
2022/07/31 10:48:56;;;;;;;1.63;0.90;;;30.20;44.90;;;;;;6242728;22;20008;-69
2022/07/31 10:51:22;;;;;;;2.00;0.95;;;30.30;44.20;;;;;;6244479;22;20154;-69
2022/07/31 10:54:02;;;;;;;1.85;0.73;;;30.40;43.60;;;;;;6245213;22;20044;-69
2022/07/31 10:56:42;;;;;;;2.58;1.30;;;30.50;43.80;;;;;;6245055;22;20004;-73
2022/07/31 10:59:09;;;;;;;1.48;0.77;;;30.50;44.30;;;;;;6244807;22;20011;-68
2022/07/31 11:01:47;;;;;;;2.65;0.90;;;30.70;43.30;;;;;;6245734;22;20094;-69
2022/07/31 11:04:24;;;;;;;4.97;1.00;;;30.60;43.00;;;;;;6245723;22;20000;-70
2022/07/31 11:06:50;;;;;;;2.10;0.80;;;30.70;42.70;;;;;;6245264;22;20023;-70
2022/07/31 11:09:23;;;;;;;2.25;0.80;;;30.80;41.60;;;;;;6245402;22;20323;-69
2022/07/31 11:11:49;;;;;;;2.58;1.17;;;30.80;42.00;;;;;;6246022;22;20403;-68
2022/07/31 11:14:15;;;;;;;6.07;1.00;;;30.80;42.80;;;;;;6245177;22;20005;-76
2022/07/31 11:16:50;;;;;;;2.58;0.90;;;30.90;42.60;;;;;;6245621;22;20430;-76
2022/07/31 11:19:16;;;;;;;1.95;1.00;;;30.90;42.50;;;;;;6245367;22;20075;-69
2022/07/31 11:21:42;;;;;;;3.42;0.88;;;31.00;42.10;;;;;;6245071;23;20085;-74
2022/07/31 11:24:19;;;;;;;5.97;1.13;;;31.10;41.90;;;;;;6245657;22;20015;-74
2022/07/31 11:26:57;;;;;;;4.22;0.95;;;31.20;42.40;;;;;;6244983;22;20020;-72
2022/07/31 11:29:36;;;;;;;5.30;0.90;;;31.20;41.90;;;;;;6245682;22;20004;-69
2022/07/31 11:32:04;;;;;;;3.83;0.77;;;31.20;42.20;;;;;;6245633;22;20007;-77
2022/07/31 11:34:47;;;;;;;2.50;0.90;;;31.30;40.00;;;;;;6245080;23;20004;-69
2022/07/31 11:37:19;;;;;;;1.60;0.85;;;31.30;40.20;;;;;;6244930;22;20042;-69
2022/07/31 11:39:45;;;;;;;2.00;0.90;;;31.40;40.20;;;;;;6245472;22;20024;-69
2022/07/31 11:42:11;;;;;;;1.05;0.70;;;31.40;40.70;;;;;;6245243;22;20087;-69
2022/07/31 11:44:37;;;;;;;1.25;0.93;;;31.50;39.70;;;;;;6245432;22;20039;-68
2022/07/31 11:47:03;;;;;;;1.92;1.00;;;31.50;39.50;;;;;;6245160;22;20027;-68
2022/07/31 11:49:32;;;;;;;2.45;0.90;;;31.60;41.00;;;;;;6244938;22;20351;-73
2022/07/31 11:52:02;;;;;;;2.22;0.93;;;31.60;41.20;;;;;;6244989;22;20061;-70
2022/07/31 11:54:28;;;;;;;2.55;0.95;;;31.70;41.20;;;;;;6245533;22;20016;-68
2022/07/31 11:56:55;;;;;;;1.38;1.00;;;31.70;40.90;;;;;;6245701;22;20292;-75
2022/07/31 11:59:31;;;;;;;1.42;0.88;;;31.80;40.50;;;;;;6245042;22;20076;-74
2022/07/31 12:02:03;;;;;;;1.13;0.95;;;31.80;39.80;;;;;;6245124;22;20493;-69
2022/07/31 12:04:31;;;;;;;1.70;1.00;;;31.80;41.40;;;;;;6245729;22;20031;-68
2022/07/31 12:06:57;;;;;;;1.05;0.93;;;31.90;41.70;;;;;;6246728;22;20514;-68
2022/07/31 12:09:24;;;;;;;3.13;0.90;;;31.80;39.70;;;;;;6247110;22;20043;-69
2022/07/31 12:11:50;;;;;;;3.00;1.00;;;31.80;40.30;;;;;;6247066;22;20031;-69
2022/07/31 12:14:33;;;;;;;1.20;1.00;;;31.90;40.40;;;;;;6244548;22;20451;-69
2022/07/31 12:17:00;;;;;;;2.22;0.80;;;31.80;40.30;;;;;;6243523;22;20434;-69
2022/07/31 12:19:34;;;;;;;4.32;0.95;;;31.80;39.90;;;;;;6244798;22;20000;-69
2022/07/31 12:22:10;;;;;;;6.82;0.93;;;31.60;41.50;;;;;;6244925;22;20008;-69
2022/07/31 12:24:38;;;;;;;2.60;1.05;;;31.50;43.70;;;;;;6243979;22;20084;-69
2022/07/31 12:27:05;;;;;;;2.53;0.93;;;31.40;42.60;;;;;;6243502;22;20028;-69
2022/07/31 12:29:38;;;;;;;1.58;0.73;;;31.50;41.90;;;;;;6246826;22;20000;-70
2022/07/31 12:32:05;;;;;;;1.52;1.00;;;31.50;42.00;;;;;;6246871;23;20000;-69
2022/07/31 12:34:41;;;;;;;1.30;1.10;;;31.50;41.70;;;;;;6246785;22;20026;-69
2022/07/31 12:37:11;;;;;;;2.08;0.93;;;31.60;43.00;;;;;;6246835;22;20000;-68
2022/07/31 12:39:50;;;;;;;0.80;0.80;;;31.70;42.50;;;;;;6246659;22;20086;-71
2022/07/31 12:42:28;;;;;;;2.95;1.00;;;31.80;41.30;;;;;;6247115;22;20011;-74
2022/07/31 12:44:55;;;;;;;1.42;1.00;;;32.00;42.30;;;;;;6246504;22;20433;-69
2022/07/31 12:47:26;;;;;;;1.75;0.95;;;32.10;43.80;;;;;;6246542;22;20457;-70
2022/07/31 12:49:52;;;;;;;3.10;1.00;;;32.20;43.70;;;;;;6246921;22;20327;-68
2022/07/31 12:52:27;;;;;;;1.58;1.00;;;32.20;42.80;;;;;;6246112;22;20024;-68
2022/07/31 12:54:53;;;;;;;7.18;1.00;;;32.30;43.40;;;;;;6246317;22;20008;-68
2022/07/31 12:57:19;;;;;;;1.50;0.90;;;32.30;43.30;;;;;;6246637;23;20004;-69